createdAt,value
2022-10-02T00:00:13.994Z,0.38
2022-10-02T00:02:50.933Z,0.45
2022-10-02T00:05:29.246Z,0.38
2022-10-02T00:08:14.061Z,0.60
2022-10-02T00:10:48.473Z,0.80
2022-10-02T00:13:26.498Z,0.40
2022-10-02T00:15:54.857Z,0.88
2022-10-02T00:18:34.660Z,0.60
2022-10-02T00:21:12.658Z,0.45
2022-10-02T00:23:54.200Z,0.75
2022-10-02T00:26:26.884Z,0.40
2022-10-02T00:29:12.456Z,0.50
2022-10-02T00:31:55.020Z,0.40
2022-10-02T00:34:43.590Z,0.70
2022-10-02T00:37:22.864Z,0.82
2022-10-02T00:40:15.664Z,0.50
2022-10-02T00:42:52.104Z,0.45
2022-10-02T00:45:43.139Z,0.65
2022-10-02T00:48:22.284Z,0.73
2022-10-02T00:51:03.975Z,0.60
2022-10-02T00:54:00.411Z,0.70
2022-10-02T00:56:41.887Z,1.08
2022-10-02T00:59:15.115Z,0.88
2022-10-02T01:01:49.365Z,0.90
2022-10-02T01:04:25.602Z,0.70
2022-10-02T01:06:53.044Z,0.70
2022-10-02T01:09:20.389Z,1.00
2022-10-02T01:11:47.569Z,0.52
2022-10-02T01:14:15.639Z,0.80
2022-10-02T01:16:45.073Z,0.60
2022-10-02T01:19:35.611Z,0.60
2022-10-02T01:22:10.653Z,0.43
2022-10-02T01:24:47.980Z,0.55
2022-10-02T01:27:15.363Z,0.40
2022-10-02T01:29:46.400Z,0.30
2022-10-02T01:32:13.634Z,0.20
2022-10-02T01:34:40.753Z,0.30
2022-10-02T01:37:08.814Z,0.45
2022-10-02T01:39:36.115Z,0.30
2022-10-02T01:42:03.423Z,0.40
2022-10-02T01:44:30.758Z,0.32
2022-10-02T01:47:06.249Z,0.28
2022-10-02T01:50:04.054Z,0.82
2022-10-02T01:52:53.900Z,0.32
2022-10-02T01:55:23.962Z,0.40
2022-10-02T01:58:11.775Z,0.40
2022-10-02T02:01:20.343Z,0.40
2022-10-02T02:04:09.239Z,0.30
2022-10-02T02:06:51.598Z,0.52
2022-10-02T02:09:45.211Z,0.47
2022-10-02T02:12:19.139Z,0.32
2022-10-02T02:14:51.682Z,0.50
2022-10-02T02:17:31.569Z,0.30
2022-10-02T02:20:18.209Z,0.30
2022-10-02T02:22:49.826Z,0.57
2022-10-02T02:25:25.324Z,0.50
2022-10-02T02:28:03.338Z,0.63
2022-10-02T02:30:32.418Z,0.63
2022-10-02T02:33:09.436Z,0.30
2022-10-02T02:35:42.670Z,0.30
2022-10-02T02:38:32.537Z,0.30
2022-10-02T02:41:13.913Z,0.30
2022-10-02T02:43:52.690Z,0.35
2022-10-02T02:46:29.573Z,0.35
2022-10-02T02:49:05.351Z,0.60
2022-10-02T02:51:39.226Z,0.20
2022-10-02T02:54:10.987Z,0.45
2022-10-02T02:56:42.120Z,0.63
2022-10-02T02:59:14.616Z,0.40
2022-10-02T03:01:42.793Z,0.47
2022-10-02T03:04:13.917Z,0.30
2022-10-02T03:06:46.276Z,0.35
2022-10-02T03:09:21.737Z,0.20
2022-10-02T03:12:07.589Z,0.25
2022-10-02T03:14:45.149Z,0.22
2022-10-02T03:17:21.161Z,0.40
2022-10-02T03:20:31.325Z,0.30
2022-10-02T03:23:15.227Z,0.22
2022-10-02T03:25:45.083Z,0.50
2022-10-02T03:28:54.497Z,0.20
2022-10-02T03:31:22.726Z,0.50
2022-10-02T03:33:52.239Z,0.47
2022-10-02T03:36:20.843Z,0.20
2022-10-02T03:39:00.665Z,0.30
2022-10-02T03:41:28.067Z,0.20
2022-10-02T03:43:55.176Z,0.30
2022-10-02T03:46:22.447Z,0.20
2022-10-02T03:48:49.567Z,0.22
2022-10-02T03:51:16.642Z,0.40
2022-10-02T03:53:43.815Z,0.17
2022-10-02T03:56:20.023Z,0.25
2022-10-02T03:58:49.947Z,0.30
2022-10-02T04:01:37.233Z,0.30
2022-10-02T04:04:18.528Z,0.22
2022-10-02T04:06:53.265Z,0.40
2022-10-02T04:09:37.716Z,0.40
2022-10-02T04:12:34.327Z,0.35
2022-10-02T04:15:08.926Z,0.75
2022-10-02T04:17:56.933Z,0.28
2022-10-02T04:20:33.599Z,0.40
2022-10-02T04:23:03.542Z,0.50
2022-10-02T04:25:36.133Z,0.30
2022-10-02T04:28:07.959Z,0.40
2022-10-02T04:30:35.209Z,0.63
2022-10-02T04:33:20.471Z,0.45
2022-10-02T04:36:06.747Z,0.38
2022-10-02T04:38:54.913Z,0.85
2022-10-02T04:41:42.267Z,0.20
2022-10-02T04:44:45.123Z,0.68
2022-10-02T04:47:14.930Z,0.40
2022-10-02T04:50:00.187Z,0.30
2022-10-02T04:52:42.361Z,0.50
2022-10-02T04:55:37.134Z,0.30
2022-10-02T04:58:38.686Z,0.20
2022-10-02T05:01:21.073Z,0.17
2022-10-02T05:04:00.675Z,0.35
2022-10-02T05:06:58.994Z,0.30
2022-10-02T05:09:30.383Z,0.50
2022-10-02T05:12:30.750Z,0.28
2022-10-02T05:15:17.852Z,0.30
2022-10-02T05:18:17.898Z,0.50
2022-10-02T05:21:11.022Z,0.30
2022-10-02T05:23:49.991Z,0.32
2022-10-02T05:26:44.856Z,0.20
2022-10-02T05:29:35.171Z,0.28
2022-10-02T05:32:24.090Z,0.40
2022-10-02T05:34:57.067Z,0.10
2022-10-02T05:38:05.513Z,0.10
2022-10-02T05:40:41.503Z,0.20
2022-10-02T05:43:24.528Z,0.20
2022-10-02T05:46:11.756Z,1.38
2022-10-02T05:48:46.504Z,0.25
2022-10-02T05:51:24.393Z,0.20
2022-10-02T05:53:58.964Z,0.22
2022-10-02T05:56:41.054Z,0.30
2022-10-02T05:59:29.147Z,0.30
2022-10-02T06:01:58.251Z,0.20
2022-10-02T06:04:35.029Z,0.30
2022-10-02T06:07:09.622Z,0.38
2022-10-02T06:09:44.692Z,0.40
2022-10-02T06:12:20.778Z,0.25
2022-10-02T06:14:53.652Z,0.25
2022-10-02T06:17:36.694Z,0.30
2022-10-02T06:20:33.036Z,0.20
2022-10-02T06:23:18.762Z,0.50
2022-10-02T06:28:56.799Z,0.70
2022-10-02T06:31:45.862Z,0.40
2022-10-02T06:34:14.328Z,0.20
2022-10-02T06:36:44.604Z,0.17
2022-10-02T06:39:23.746Z,0.17
2022-10-02T06:42:03.950Z,0.30
2022-10-02T06:44:50.735Z,0.30
2022-10-02T06:47:45.468Z,0.40
2022-10-02T06:50:28.258Z,0.80
2022-10-02T06:53:06.233Z,0.77
2022-10-02T06:55:33.338Z,0.20
2022-10-02T06:58:30.319Z,0.35
2022-10-02T07:01:16.488Z,0.52
2022-10-02T07:04:04.295Z,0.40
2022-10-02T07:07:12.890Z,0.20
2022-10-02T07:09:49.100Z,0.47
2022-10-02T07:12:28.645Z,0.20
2022-10-02T07:15:10.908Z,0.32
2022-10-02T07:17:57.486Z,0.30
2022-10-02T07:20:30.515Z,0.40
2022-10-02T07:23:14.987Z,0.25
2022-10-02T07:25:45.350Z,0.20
2022-10-02T07:28:49.721Z,0.40
2022-10-02T07:31:43.495Z,0.60
2022-10-02T07:34:46.866Z,0.88
2022-10-02T07:37:16.845Z,0.50
2022-10-02T07:40:12.151Z,0.65
2022-10-02T07:42:39.248Z,0.30
2022-10-02T07:45:23.404Z,0.47
2022-10-02T07:48:20.349Z,0.68
2022-10-02T07:51:29.946Z,0.40
2022-10-02T07:54:16.830Z,0.55
2022-10-02T07:56:45.846Z,0.47
2022-10-02T07:59:17.227Z,0.63
2022-10-02T08:01:46.749Z,0.22
2022-10-02T08:04:18.995Z,0.60
2022-10-02T08:06:49.777Z,0.40
2022-10-02T08:09:45.990Z,0.40
2022-10-02T08:12:19.510Z,0.70
2022-10-02T08:14:50.757Z,0.30
2022-10-02T08:17:39.941Z,0.57
2022-10-02T08:20:29.486Z,0.45
2022-10-02T08:23:00.498Z,0.20
2022-10-02T08:25:51.334Z,0.40
2022-10-02T08:28:28.250Z,0.40
2022-10-02T08:30:55.496Z,0.38
2022-10-02T08:33:23.296Z,0.38
2022-10-02T08:36:02.350Z,0.25
2022-10-02T08:38:45.187Z,0.70
2022-10-02T08:41:21.147Z,0.20
2022-10-02T08:44:21.516Z,0.30
2022-10-02T08:47:33.223Z,0.40
2022-10-02T08:50:22.085Z,1.20
2022-10-02T08:53:26.890Z,0.35
2022-10-02T08:55:59.131Z,0.52
2022-10-02T08:58:47.888Z,0.50
2022-10-02T09:02:08.306Z,0.50
2022-10-02T09:05:03.241Z,0.40
2022-10-02T09:08:12.470Z,0.40
2022-10-02T09:10:51.445Z,0.50
2022-10-02T09:13:56.533Z,0.57
2022-10-02T09:16:30.275Z,0.40
2022-10-02T09:19:19.395Z,0.50
2022-10-02T09:21:56.206Z,0.57
2022-10-02T09:24:32.261Z,0.50
2022-10-02T09:27:31.655Z,0.50
2022-10-02T09:30:39.487Z,0.60
2022-10-02T09:33:39.463Z,0.57
2022-10-02T09:36:06.627Z,1.05
2022-10-02T09:38:52.294Z,0.55
2022-10-02T09:45:01.586Z,0.60
2022-10-02T09:47:52.284Z,0.52
2022-10-02T09:51:15.758Z,0.50
2022-10-02T09:54:21.720Z,0.43
2022-10-02T09:57:19.424Z,0.40
2022-10-02T10:00:22.257Z,0.90
2022-10-02T10:03:11.594Z,0.40
2022-10-02T10:05:57.171Z,0.35
2022-10-02T10:08:44.817Z,0.60
2022-10-02T10:11:31.216Z,0.63
2022-10-02T10:14:37.076Z,0.65
2022-10-02T10:17:34.400Z,0.70
2022-10-02T10:20:40.739Z,0.50
2022-10-02T10:23:20.601Z,0.40
2022-10-02T10:25:58.153Z,0.60
2022-10-02T10:28:38.065Z,0.50
2022-10-02T10:31:36.742Z,0.70
2022-10-02T10:34:19.099Z,0.57
2022-10-02T10:37:13.942Z,0.30
2022-10-02T10:40:09.050Z,0.40
2022-10-02T10:43:07.556Z,0.47
2022-10-02T10:46:02.536Z,0.47
2022-10-02T10:48:59.961Z,0.60
2022-10-02T10:51:43.454Z,0.30
2022-10-02T10:54:28.469Z,0.57
2022-10-02T10:57:47.180Z,0.65
2022-10-02T11:00:45.922Z,0.55
2022-10-02T11:03:44.976Z,0.43
2022-10-02T11:06:22.377Z,0.95
2022-10-02T11:09:12.627Z,0.30
2022-10-02T11:12:13.453Z,0.47
2022-10-02T11:15:19.085Z,0.38
2022-10-02T11:18:01.174Z,0.50
2022-10-02T11:20:42.611Z,0.80
2022-10-02T11:23:21.908Z,0.20
2022-10-02T11:26:11.575Z,0.30
2022-10-02T11:29:00.321Z,0.38
2022-10-02T11:31:49.984Z,0.82
2022-10-02T11:34:42.705Z,0.40
2022-10-02T11:37:27.896Z,0.40
2022-10-02T11:40:16.657Z,0.55
2022-10-02T11:42:43.736Z,0.85
2022-10-02T11:45:32.786Z,0.40
2022-10-02T11:48:15.253Z,0.38
2022-10-02T11:51:17.493Z,0.50
2022-10-02T11:54:18.186Z,0.32
2022-10-02T11:57:16.402Z,0.40
2022-10-02T11:59:52.799Z,0.57
2022-10-02T12:02:26.501Z,0.60
2022-10-02T12:05:21.794Z,0.45
2022-10-02T12:08:17.514Z,0.40
2022-10-02T12:11:08.774Z,0.60
2022-10-02T12:14:13.164Z,0.35
2022-10-02T12:17:12.814Z,0.50
2022-10-02T12:20:13.273Z,0.88
2022-10-02T12:23:23.979Z,0.73
2022-10-02T12:26:20.156Z,0.40
2022-10-02T12:29:17.238Z,0.52
2022-10-02T12:32:00.717Z,0.75
2022-10-02T12:34:34.353Z,0.40
2022-10-02T12:37:13.025Z,0.60
2022-10-02T12:40:04.950Z,0.70
2022-10-02T12:42:52.891Z,0.50
2022-10-02T12:45:44.760Z,0.77
2022-10-02T12:48:48.083Z,0.50
2022-10-02T12:51:46.506Z,0.70
2022-10-02T12:54:53.228Z,0.40
2022-10-02T12:57:56.121Z,0.77
2022-10-02T13:00:41.569Z,0.75
2022-10-02T13:03:42.404Z,0.65
2022-10-02T13:06:25.491Z,0.70
2022-10-02T13:09:03.680Z,0.43
2022-10-02T13:11:34.492Z,0.47
2022-10-02T13:14:20.373Z,0.35
2022-10-02T13:19:50.315Z,0.65
2022-10-02T13:22:31.463Z,0.90
2022-10-02T13:25:34.534Z,1.35
2022-10-02T13:28:44.723Z,0.68
2022-10-02T13:31:32.617Z,0.52
2022-10-02T13:34:25.886Z,0.65
2022-10-02T13:37:10.968Z,0.50
2022-10-02T13:40:04.443Z,0.32
2022-10-02T13:42:51.126Z,0.50
2022-10-02T13:45:34.523Z,0.20
2022-10-02T13:48:01.658Z,0.55
2022-10-02T13:51:04.687Z,0.43
2022-10-02T13:53:43.919Z,0.32
2022-10-02T13:56:37.992Z,0.30
2022-10-02T13:59:17.077Z,0.25
2022-10-02T14:02:17.052Z,0.20
2022-10-02T14:04:46.284Z,0.10
2022-10-02T14:07:13.210Z,0.45
2022-10-02T14:10:11.084Z,0.20
2022-10-02T14:12:47.640Z,0.17
2022-10-02T14:15:31.564Z,0.20
2022-10-02T14:18:16.623Z,0.10
2022-10-02T14:20:55.650Z,0.13
2022-10-02T14:23:43.186Z,0.40
2022-10-02T14:26:29.357Z,0.20
2022-10-02T14:29:08.772Z,0.35
2022-10-02T14:32:08.748Z,0.13
2022-10-02T14:34:53.414Z,0.10
2022-10-02T14:38:16.619Z,0.20
2022-10-02T14:40:54.217Z,0.20
2022-10-02T14:43:32.991Z,0.20
2022-10-02T14:46:12.370Z,0.20
2022-10-02T14:49:21.569Z,0.30
2022-10-02T14:52:07.090Z,0.30
2022-10-02T14:54:56.015Z,0.10
2022-10-02T14:57:36.620Z,0.17
2022-10-02T15:00:22.084Z,0.20
2022-10-02T15:02:49.245Z,0.20
2022-10-02T15:05:43.845Z,0.20
2022-10-02T15:08:22.216Z,0.10
2022-10-02T15:10:49.856Z,0.25
2022-10-02T15:13:26.849Z,0.20
2022-10-02T15:16:19.247Z,0.65
2022-10-02T15:18:58.905Z,1.27
2022-10-02T15:21:58.107Z,0.98
2022-10-02T15:24:45.041Z,1.10
2022-10-02T15:27:12.317Z,1.20
2022-10-02T15:29:58.442Z,0.82
2022-10-02T15:32:40.141Z,0.60
2022-10-02T15:35:54.786Z,0.55
2022-10-02T15:38:40.243Z,0.35
2022-10-02T15:41:16.819Z,0.30
2022-10-02T15:43:51.625Z,0.20
2022-10-02T15:46:40.602Z,0.50
2022-10-02T15:49:13.745Z,0.68
2022-10-02T15:52:01.088Z,0.50
2022-10-02T15:55:04.684Z,0.20
2022-10-02T15:57:44.916Z,0.30
2022-10-02T16:00:13.939Z,0.30
2022-10-02T16:03:00.224Z,0.40
2022-10-02T16:06:12.692Z,0.40
2022-10-02T16:09:21.421Z,0.30
2022-10-02T16:12:13.431Z,0.38
2022-10-02T16:15:02.190Z,0.47
2022-10-02T16:17:59.552Z,0.60
2022-10-02T16:20:41.575Z,0.68
2022-10-02T16:23:23.803Z,0.73
2022-10-02T16:26:15.465Z,0.90
2022-10-02T16:29:11.689Z,0.93
2022-10-02T16:31:59.123Z,1.20
2022-10-02T16:34:35.283Z,1.30
2022-10-02T16:37:11.113Z,1.70
2022-10-02T16:39:52.135Z,1.40
2022-10-02T16:42:28.350Z,1.40
2022-10-02T16:44:58.290Z,1.20
2022-10-02T16:47:36.845Z,0.93
2022-10-02T16:50:12.782Z,0.60
2022-10-02T16:52:52.479Z,0.70
2022-10-02T16:55:40.321Z,0.63
2022-10-02T16:58:41.145Z,0.65
2022-10-02T17:01:53.533Z,1.17
2022-10-02T17:04:52.016Z,1.08
2022-10-02T17:07:42.814Z,1.40
2022-10-02T17:10:35.386Z,1.40
2022-10-02T17:13:44.775Z,1.00
2022-10-02T17:16:24.346Z,1.25
2022-10-02T17:19:00.139Z,1.20
2022-10-02T17:21:38.923Z,1.10
2022-10-02T17:24:33.465Z,0.90
2022-10-02T17:27:18.918Z,1.30
2022-10-02T17:29:57.174Z,1.58
2022-10-02T17:32:53.238Z,1.17
2022-10-02T17:36:06.218Z,1.38
2022-10-02T17:38:51.980Z,1.05
2022-10-02T17:44:22.504Z,0.90
2022-10-02T17:47:17.891Z,1.05
2022-10-02T17:50:16.795Z,1.70
2022-10-02T17:53:37.985Z,2.42
2022-10-02T17:56:29.588Z,1.90
2022-10-02T17:59:26.303Z,1.20
2022-10-02T18:02:17.761Z,2.20
2022-10-02T18:05:11.485Z,1.15
2022-10-02T18:08:09.216Z,1.50
2022-10-02T18:10:42.625Z,1.48
2022-10-02T18:13:34.295Z,1.27
2022-10-02T18:16:28.286Z,1.40
2022-10-02T18:18:55.376Z,2.13
2022-10-02T18:21:56.461Z,2.10
2022-10-02T18:24:52.793Z,1.55
2022-10-02T18:27:44.578Z,1.15
2022-10-02T18:30:23.641Z,0.93
2022-10-02T18:33:25.368Z,0.70
2022-10-02T18:36:10.986Z,0.80
2022-10-02T18:38:56.980Z,1.05
2022-10-02T18:41:36.308Z,1.95
2022-10-02T18:44:22.447Z,1.40
2022-10-02T18:47:02.841Z,1.52
2022-10-02T18:49:38.759Z,1.50
2022-10-02T18:52:23.611Z,1.50
2022-10-02T18:55:03.279Z,1.10
2022-10-02T18:58:08.083Z,1.30
2022-10-02T19:01:10.240Z,1.20
2022-10-02T19:03:55.413Z,1.40
2022-10-02T19:06:54.729Z,1.88
2022-10-02T19:09:27.845Z,1.17
2022-10-02T19:11:58.508Z,1.25
2022-10-02T19:14:30.252Z,1.40
2022-10-02T19:17:19.337Z,1.20
2022-10-02T19:19:46.481Z,1.27
2022-10-02T19:22:36.418Z,1.17
2022-10-02T19:25:11.782Z,1.35
2022-10-02T19:30:26.510Z,2.08
2022-10-02T19:32:57.787Z,1.95
2022-10-02T19:35:32.705Z,1.60
2022-10-02T19:38:20.701Z,1.75
2022-10-02T19:40:55.194Z,0.93
2022-10-02T19:43:32.611Z,0.80
2022-10-02T19:46:04.395Z,1.00
2022-10-02T19:48:33.472Z,1.25
2022-10-02T19:51:07.511Z,0.98
2022-10-02T19:53:41.599Z,0.80
2022-10-02T19:56:15.803Z,1.08
2022-10-02T19:58:50.048Z,0.70
2022-10-02T20:01:20.357Z,1.00
2022-10-02T20:03:50.476Z,0.70
2022-10-02T20:06:22.423Z,0.82
2022-10-02T20:09:02.906Z,1.35
2022-10-02T20:11:35.183Z,0.85
2022-10-02T20:14:10.126Z,0.80
2022-10-02T20:16:55.743Z,0.82
2022-10-02T20:19:29.030Z,0.50
2022-10-02T20:22:00.131Z,0.70
2022-10-02T20:24:41.801Z,0.40
2022-10-02T20:27:37.471Z,0.65
2022-10-02T20:30:14.034Z,1.05
2022-10-02T20:33:02.566Z,0.60
2022-10-02T20:35:47.044Z,0.85
2022-10-02T20:38:38.847Z,0.75
2022-10-02T20:41:32.139Z,1.42
2022-10-02T20:44:07.422Z,2.58
2022-10-02T20:49:40.662Z,1.50
2022-10-02T20:52:27.514Z,1.40
2022-10-02T20:54:54.667Z,1.20
2022-10-02T20:58:00.320Z,1.27
2022-10-02T21:00:50.657Z,1.23
2022-10-02T21:03:17.808Z,0.85
2022-10-02T21:06:03.333Z,1.10
2022-10-02T21:08:49.199Z,0.80
2022-10-02T21:11:38.758Z,1.10
2022-10-02T21:14:43.614Z,1.02
2022-10-02T21:17:15.467Z,0.88
2022-10-02T21:20:00.806Z,1.02
2022-10-02T21:22:52.392Z,0.95
2022-10-02T21:25:28.692Z,1.10
2022-10-02T21:28:17.412Z,1.15
2022-10-02T21:31:01.301Z,0.90
2022-10-02T21:33:55.211Z,1.10
2022-10-02T21:36:36.493Z,0.98
2022-10-02T21:39:34.577Z,0.80
2022-10-02T21:42:25.921Z,0.82
2022-10-02T21:45:04.286Z,1.08
2022-10-02T21:48:04.677Z,0.73
2022-10-02T21:50:50.847Z,0.60
2022-10-02T21:53:39.396Z,0.88
2022-10-02T21:56:21.644Z,0.63
2022-10-02T21:59:27.346Z,0.50
2022-10-02T22:02:26.225Z,0.75
2022-10-02T22:05:19.350Z,0.60
2022-10-02T22:08:08.316Z,0.73
2022-10-02T22:10:49.443Z,0.80
2022-10-02T22:13:25.440Z,0.32
2022-10-02T22:16:19.035Z,0.60
2022-10-02T22:19:33.620Z,0.50
2022-10-02T22:22:29.595Z,0.82
2022-10-02T22:25:27.839Z,1.35
2022-10-02T22:28:17.843Z,0.68
2022-10-02T22:30:57.168Z,0.80
2022-10-02T22:33:43.706Z,0.80
2022-10-02T22:36:25.670Z,0.70
2022-10-02T22:39:29.238Z,0.50
2022-10-02T22:42:17.973Z,0.70
2022-10-02T22:45:05.258Z,0.30
2022-10-02T22:47:54.288Z,0.82
2022-10-02T22:50:48.169Z,0.60
2022-10-02T22:53:24.276Z,0.50
2022-10-02T22:55:56.459Z,0.57
2022-10-02T22:58:23.548Z,0.35
2022-10-02T23:00:59.348Z,0.80
2022-10-02T23:03:29.155Z,0.50
2022-10-02T23:06:12.497Z,0.40
2022-10-02T23:08:51.675Z,0.50
2022-10-02T23:11:19.050Z,0.68
2022-10-02T23:14:16.120Z,1.00
2022-10-02T23:16:51.322Z,0.40
2022-10-02T23:19:28.089Z,0.40
2022-10-02T23:22:05.282Z,0.57
2022-10-02T23:24:47.479Z,0.38
2022-10-02T23:27:20.566Z,0.70
2022-10-02T23:30:03.447Z,0.55
2022-10-02T23:32:55.157Z,0.68
2022-10-02T23:36:01.437Z,0.40
2022-10-02T23:38:44.700Z,0.60
2022-10-02T23:41:35.540Z,0.28
2022-10-02T23:44:39.780Z,0.70
2022-10-02T23:47:27.507Z,1.35
2022-10-02T23:49:56.450Z,0.45
2022-10-02T23:52:51.231Z,0.63
2022-10-02T23:55:32.267Z,0.40
2022-10-02T23:58:27.412Z,0.60
